createdAt,value
2016-07-30T00:01:00.040Z,0
2016-07-30T00:04:13.669Z,0
2016-07-30T00:07:27.313Z,0
2016-07-30T00:10:40.899Z,0
2016-07-30T00:13:54.551Z,0
2016-07-30T00:17:14.579Z,0
2016-07-30T00:20:18.069Z,0
2016-07-30T00:23:31.296Z,0
2016-07-30T00:26:45.258Z,0
2016-07-30T00:29:59.077Z,0
2016-07-30T00:33:12.889Z,0
2016-07-30T00:36:28.389Z,0
2016-07-30T00:39:39.274Z,0
2016-07-30T00:42:52.949Z,0
2016-07-30T00:46:12.411Z,0
2016-07-30T00:49:15.669Z,0
2016-07-30T00:52:29.438Z,0
2016-07-30T00:55:43.162Z,0
2016-07-30T00:58:57.073Z,0
2016-07-30T01:02:10.257Z,0
2016-07-30T01:05:23.893Z,0
2016-07-30T01:08:37.671Z,0
2016-07-30T01:11:51.117Z,0
2016-07-30T01:15:10.892Z,0
2016-07-30T01:18:14.179Z,0
2016-07-30T01:21:27.631Z,0
2016-07-30T01:24:41.631Z,0
2016-07-30T01:27:55.561Z,0
2016-07-30T01:31:15.103Z,0
2016-07-30T01:34:18.376Z,0
2016-07-30T01:37:31.985Z,0
2016-07-30T01:40:45.617Z,0
2016-07-30T01:43:59.299Z,0
2016-07-30T01:47:12.806Z,0
2016-07-30T01:50:26.212Z,0
2016-07-30T01:53:39.533Z,0
2016-07-30T01:56:53.338Z,0
2016-07-30T02:00:12.837Z,0
2016-07-30T02:03:16.326Z,0
2016-07-30T02:06:29.816Z,0
2016-07-30T02:09:43.371Z,0
2016-07-30T02:12:57.358Z,0
2016-07-30T02:16:10.997Z,0
2016-07-30T02:19:24.617Z,0
2016-07-30T02:22:38.158Z,0
2016-07-30T02:25:51.779Z,0
2016-07-30T02:29:11.342Z,0
2016-07-30T02:32:14.819Z,0
2016-07-30T02:35:28.574Z,0
2016-07-30T02:38:42.433Z,0
2016-07-30T02:41:56.276Z,0
2016-07-30T02:45:10.296Z,0
2016-07-30T02:48:23.923Z,1
2016-07-30T02:51:37.718Z,1
2016-07-30T02:54:51.323Z,2
2016-07-30T02:58:11.065Z,3
2016-07-30T03:01:14.461Z,4
2016-07-30T03:04:28.015Z,4
2016-07-30T03:07:41.633Z,5
2016-07-30T03:10:55.171Z,6
2016-07-30T03:14:14.786Z,9
2016-07-30T03:17:18.210Z,11
2016-07-30T03:20:31.995Z,18
2016-07-30T03:23:45.831Z,30
2016-07-30T03:26:59.958Z,47
2016-07-30T03:30:13.273Z,65
2016-07-30T03:33:27.127Z,80
2016-07-30T03:36:40.630Z,96
2016-07-30T03:39:54.573Z,129
2016-07-30T03:43:14.331Z,167
2016-07-30T03:46:17.684Z,186
2016-07-30T03:49:31.616Z,202
2016-07-30T03:52:45.389Z,209
2016-07-30T03:55:59.246Z,226
2016-07-30T03:59:12.781Z,243
2016-07-30T04:02:26.646Z,280
2016-07-30T04:05:40.577Z,324
2016-07-30T04:08:54.091Z,414
2016-07-30T04:12:13.902Z,478
2016-07-30T04:15:17.255Z,479
2016-07-30T04:18:30.634Z,448
2016-07-30T04:21:44.219Z,520
2016-07-30T04:24:57.695Z,639
2016-07-30T04:28:11.221Z,678
2016-07-30T04:31:24.774Z,651
2016-07-30T04:34:38.621Z,567
2016-07-30T04:37:52.104Z,780
2016-07-30T04:41:12.041Z,601
2016-07-30T04:44:15.450Z,681
2016-07-30T04:47:29.229Z,721
2016-07-30T04:50:42.914Z,501
2016-07-30T04:53:56.878Z,508
2016-07-30T04:57:10.918Z,969
2016-07-30T05:00:24.741Z,1232
2016-07-30T05:03:38.343Z,1291
2016-07-30T05:06:51.940Z,1249
2016-07-30T05:10:11.672Z,1107
2016-07-30T05:13:15.063Z,1072
2016-07-30T05:16:28.808Z,1157
2016-07-30T05:19:42.470Z,1323
2016-07-30T05:22:56.309Z,1444
2016-07-30T05:26:16.274Z,1664
2016-07-30T05:29:19.558Z,1679
2016-07-30T05:32:33.247Z,1524
2016-07-30T05:35:47.055Z,1495
2016-07-30T05:39:06.547Z,1732
2016-07-30T05:42:16.001Z,1973
2016-07-30T05:45:19.367Z,1807
2016-07-30T05:48:33.166Z,1741
2016-07-30T05:51:47.044Z,1892
2016-07-30T05:55:07.177Z,1827
2016-07-30T05:58:10.649Z,1972
2016-07-30T06:01:24.695Z,2162
2016-07-30T06:04:38.624Z,2310
2016-07-30T06:07:52.690Z,2685
2016-07-30T06:11:12.455Z,2583
2016-07-30T06:14:16.121Z,2871
2016-07-30T06:17:30.242Z,2370
2016-07-30T06:20:44.479Z,2998
2016-07-30T06:23:58.581Z,4568
2016-07-30T06:27:12.945Z,5363
2016-07-30T06:30:27.019Z,12551
2016-07-30T06:33:41.280Z,5753
2016-07-30T06:36:55.442Z,3544
2016-07-30T06:40:15.617Z,4390
2016-07-30T06:43:19.625Z,4445
2016-07-30T06:46:33.789Z,9360
2016-07-30T06:49:48.186Z,6089
2016-07-30T06:53:08.685Z,9083
2016-07-30T06:56:12.608Z,1245
2016-07-30T06:59:26.899Z,12158
2016-07-30T07:02:41.331Z,8192
2016-07-30T07:05:55.524Z,12019
2016-07-30T07:09:15.790Z,4547
2016-07-30T07:12:19.884Z,10486
2016-07-30T07:15:34.485Z,10570
2016-07-30T07:18:48.405Z,11605
2016-07-30T07:22:08.552Z,1273
2016-07-30T07:25:12.693Z,11588
2016-07-30T07:28:27.212Z,10532
2016-07-30T07:31:41.351Z,10288
2016-07-30T07:34:55.743Z,7206
2016-07-30T07:38:16.060Z,8336
2016-07-30T07:41:19.992Z,6448
2016-07-30T07:44:34.067Z,5385
2016-07-30T07:47:48.170Z,4140
2016-07-30T07:51:08.325Z,3571
2016-07-30T07:54:12.027Z,3758
2016-07-30T07:57:26.123Z,3407
2016-07-30T08:00:40.490Z,3114
2016-07-30T08:03:54.021Z,5498
2016-07-30T08:07:14.106Z,6392
2016-07-30T08:10:18.007Z,9178
2016-07-30T08:13:32.247Z,4886
2016-07-30T08:16:46.657Z,6065
2016-07-30T08:20:07.430Z,3669
2016-07-30T08:23:11.588Z,384
2016-07-30T08:26:26.508Z,5736
2016-07-30T08:29:41.186Z,7966
2016-07-30T08:32:55.865Z,11502
2016-07-30T08:36:16.286Z,9614
2016-07-30T08:39:20.116Z,3580
2016-07-30T08:42:34.310Z,384
2016-07-30T08:45:48.902Z,4973
2016-07-30T08:49:09.254Z,2672
2016-07-30T08:52:13.611Z,10342
2016-07-30T08:55:28.092Z,5911
2016-07-30T08:58:42.531Z,9332
2016-07-30T09:01:57.033Z,5198
2016-07-30T09:05:11.374Z,3932
2016-07-30T09:08:25.569Z,2968
2016-07-30T09:11:39.829Z,3056
2016-07-30T09:14:53.376Z,1846
2016-07-30T09:18:13.711Z,3530
2016-07-30T09:21:17.605Z,4144
2016-07-30T09:24:31.978Z,6410
2016-07-30T09:27:46.169Z,5347
2016-07-30T09:31:00.377Z,6158
2016-07-30T09:34:14.712Z,3514
2016-07-30T09:37:29.042Z,3329
2016-07-30T09:40:43.044Z,2564
2016-07-30T09:43:57.269Z,2306
2016-07-30T09:47:11.635Z,2704
2016-07-30T09:50:25.910Z,2151
2016-07-30T09:53:40.162Z,1967
2016-07-30T09:56:54.049Z,1888
2016-07-30T10:00:14.380Z,1831
2016-07-30T10:03:18.100Z,2044
2016-07-30T10:06:32.240Z,2164
2016-07-30T10:09:46.431Z,2400
2016-07-30T10:13:06.757Z,2811
2016-07-30T10:16:10.619Z,3305
2016-07-30T10:19:24.825Z,3171
2016-07-30T10:22:38.840Z,1642
2016-07-30T10:25:52.854Z,1461
2016-07-30T10:29:12.901Z,1748
2016-07-30T10:32:16.604Z,1889
2016-07-30T10:35:30.544Z,3367
2016-07-30T10:38:44.899Z,4533
2016-07-30T10:41:59.096Z,5706
2016-07-30T10:45:13.584Z,6775
2016-07-30T10:48:27.792Z,6374
2016-07-30T10:51:42.035Z,5548
2016-07-30T10:54:56.775Z,5653
2016-07-30T10:58:11.420Z,5456
2016-07-30T11:01:26.061Z,5906
2016-07-30T11:04:40.194Z,5606
2016-07-30T11:07:54.597Z,4107
2016-07-30T11:11:14.870Z,4238
2016-07-30T11:14:18.672Z,4496
2016-07-30T11:17:32.529Z,4829
2016-07-30T11:20:46.778Z,5062
2016-07-30T11:24:07.115Z,4551
2016-07-30T11:27:11.082Z,5746
2016-07-30T11:30:25.478Z,4598
2016-07-30T11:33:39.475Z,4316
2016-07-30T11:36:53.745Z,4450
2016-07-30T11:40:14.289Z,3585
2016-07-30T11:43:18.105Z,3338
2016-07-30T11:46:32.382Z,3410
2016-07-30T11:49:46.601Z,2887
2016-07-30T11:53:00.394Z,3088
2016-07-30T11:56:14.487Z,3171
2016-07-30T11:59:28.932Z,2041
2016-07-30T12:02:43.131Z,2790
2016-07-30T12:05:57.618Z,2051
2016-07-30T12:09:16.226Z,3014
2016-07-30T12:12:20.027Z,2979
2016-07-30T12:15:34.110Z,2620
2016-07-30T12:18:48.164Z,3007
2016-07-30T12:22:08.354Z,3458
2016-07-30T12:25:12.326Z,2807
2016-07-30T12:28:26.497Z,2986
2016-07-30T12:31:40.804Z,2253
2016-07-30T12:34:55.004Z,2486
2016-07-30T12:38:14.969Z,2496
2016-07-30T12:41:18.916Z,2578
2016-07-30T12:44:33.024Z,2666
2016-07-30T12:47:47.437Z,2657
2016-07-30T12:51:07.450Z,2835
2016-07-30T12:54:11.367Z,2922
2016-07-30T12:57:25.272Z,2840
2016-07-30T13:00:39.704Z,2617
2016-07-30T13:03:54.092Z,2497
2016-07-30T13:07:13.754Z,3499
2016-07-30T13:10:17.609Z,3853
2016-07-30T13:13:32.056Z,2580
2016-07-30T13:16:46.217Z,3052
2016-07-30T13:20:06.664Z,2731
2016-07-30T13:23:10.477Z,2812
2016-07-30T13:26:24.666Z,3127
2016-07-30T13:29:38.351Z,2948
2016-07-30T13:32:52.505Z,3179
2016-07-30T13:36:12.725Z,2373
2016-07-30T13:39:16.713Z,1584
2016-07-30T13:42:30.724Z,1065
2016-07-30T13:45:45.112Z,1291
2016-07-30T13:48:59.041Z,1227
2016-07-30T13:52:13.143Z,1478
2016-07-30T13:55:27.818Z,1055
2016-07-30T13:58:41.925Z,976
2016-07-30T14:01:56.343Z,1161
2016-07-30T14:05:10.666Z,1046
2016-07-30T14:08:24.884Z,1179
2016-07-30T14:11:39.050Z,1207
2016-07-30T14:14:52.679Z,997
2016-07-30T14:18:11.495Z,900
2016-07-30T14:21:15.446Z,950
2016-07-30T14:24:29.697Z,795
2016-07-30T14:27:43.819Z,1035
2016-07-30T14:30:57.811Z,1236
2016-07-30T14:34:11.944Z,829
2016-07-30T14:37:28.237Z,1313
2016-07-30T14:40:40.149Z,1948
2016-07-30T14:43:54.272Z,1695
2016-07-30T14:47:14.418Z,1483
2016-07-30T14:50:18.331Z,1780
2016-07-30T14:53:32.588Z,1808
2016-07-30T14:56:46.870Z,1058
2016-07-30T15:00:06.901Z,1063
2016-07-30T15:03:10.871Z,1760
2016-07-30T15:06:24.911Z,1455
2016-07-30T15:09:39.021Z,1146
2016-07-30T15:12:53.515Z,1369
2016-07-30T15:16:14.001Z,1266
2016-07-30T15:19:17.909Z,1006
2016-07-30T15:22:31.956Z,998
2016-07-30T15:25:46.295Z,942
2016-07-30T15:29:06.735Z,912
2016-07-30T15:32:10.644Z,1333
2016-07-30T15:35:24.646Z,1393
2016-07-30T15:38:38.495Z,952
2016-07-30T15:41:52.967Z,1229
2016-07-30T15:45:13.310Z,1028
2016-07-30T15:48:17.061Z,990
2016-07-30T15:51:31.207Z,1212
2016-07-30T15:54:45.361Z,910
2016-07-30T15:57:59.538Z,960
2016-07-30T16:01:13.619Z,880
2016-07-30T16:04:27.810Z,796
2016-07-30T16:07:42.075Z,747
2016-07-30T16:10:56.250Z,903
2016-07-30T16:14:10.550Z,974
2016-07-30T16:17:24.524Z,1092
2016-07-30T16:20:38.427Z,1282
2016-07-30T16:23:51.635Z,1172
2016-07-30T16:27:11.490Z,1182
2016-07-30T16:30:15.451Z,1093
2016-07-30T16:33:28.708Z,986
2016-07-30T16:36:42.706Z,814
2016-07-30T16:39:56.921Z,675
2016-07-30T16:43:11.449Z,626
2016-07-30T16:46:25.795Z,794
2016-07-30T16:49:40.296Z,786
2016-07-30T16:52:55.003Z,704
2016-07-30T16:56:15.147Z,750
2016-07-30T16:59:18.901Z,754
2016-07-30T17:02:33.500Z,595
2016-07-30T17:05:48.043Z,585
2016-07-30T17:09:08.555Z,590
2016-07-30T17:12:12.265Z,591
2016-07-30T17:15:26.715Z,569
2016-07-30T17:18:41.184Z,618
2016-07-30T17:21:55.308Z,492
2016-07-30T17:25:15.539Z,425
2016-07-30T17:28:19.254Z,425
2016-07-30T17:31:33.502Z,407
2016-07-30T17:34:47.714Z,447
2016-07-30T17:38:08.089Z,483
2016-07-30T17:44:26.414Z,517
2016-07-30T17:47:41.912Z,415
2016-07-30T17:50:55.511Z,363
2016-07-30T17:54:15.869Z,330
2016-07-30T17:57:19.772Z,322
2016-07-30T18:00:34.209Z,295
2016-07-30T18:03:48.441Z,256
2016-07-30T18:07:08.917Z,248
2016-07-30T18:10:12.698Z,179
2016-07-30T18:13:26.750Z,129
2016-07-30T18:16:41.044Z,53
2016-07-30T18:19:55.179Z,58
2016-07-30T18:23:15.530Z,82
2016-07-30T18:26:19.274Z,165
2016-07-30T18:29:33.649Z,145
2016-07-30T18:32:48.175Z,162
2016-07-30T18:36:08.690Z,188
2016-07-30T18:39:12.530Z,134
2016-07-30T18:42:26.837Z,110
2016-07-30T18:45:41.479Z,111
2016-07-30T18:48:55.835Z,106
2016-07-30T18:52:16.028Z,90
2016-07-30T18:55:19.827Z,72
2016-07-30T18:58:34.246Z,57
2016-07-30T19:01:48.809Z,45
2016-07-30T19:05:09.275Z,33
2016-07-30T19:08:13.125Z,24
2016-07-30T19:14:42.089Z,12
2016-07-30T19:17:55.366Z,8
2016-07-30T19:21:15.404Z,6
2016-07-30T19:24:19.111Z,4
2016-07-30T19:27:33.585Z,3
2016-07-30T19:30:48.176Z,2
2016-07-30T19:34:08.708Z,1
2016-07-30T19:37:12.447Z,0
2016-07-30T19:40:26.823Z,1
2016-07-30T19:43:40.829Z,0
2016-07-30T19:46:55.274Z,0
2016-07-30T19:50:15.770Z,0
2016-07-30T19:53:19.554Z,0
2016-07-30T19:56:33.864Z,0
2016-07-30T19:59:48.276Z,0
2016-07-30T20:03:08.822Z,0
2016-07-30T20:06:12.548Z,0
2016-07-30T20:09:26.912Z,0
2016-07-30T20:12:41.428Z,0
2016-07-30T20:15:55.993Z,0
2016-07-30T20:19:16.272Z,0
2016-07-30T20:22:19.832Z,0
2016-07-30T20:25:34.250Z,0
2016-07-30T20:28:48.367Z,0
2016-07-30T20:32:06.929Z,0
2016-07-30T20:35:16.495Z,0
2016-07-30T20:38:20.202Z,0
2016-07-30T20:41:34.563Z,0
2016-07-30T20:44:48.792Z,0
2016-07-30T20:48:09.202Z,0
2016-07-30T20:51:12.920Z,0
2016-07-30T20:54:27.030Z,0
2016-07-30T20:57:41.205Z,0
2016-07-30T21:00:55.569Z,0
2016-07-30T21:04:15.670Z,0
2016-07-30T21:07:19.393Z,0
2016-07-30T21:10:33.724Z,0
2016-07-30T21:13:48.195Z,0
2016-07-30T21:17:08.735Z,0
2016-07-30T21:20:12.355Z,0
2016-07-30T21:23:26.595Z,0
2016-07-30T21:26:40.985Z,0
2016-07-30T21:29:55.418Z,0
2016-07-30T21:33:15.866Z,0
2016-07-30T21:36:19.548Z,0
2016-07-30T21:39:33.819Z,0
2016-07-30T21:42:48.212Z,0
2016-07-30T21:46:08.549Z,0
2016-07-30T21:49:12.057Z,0
2016-07-30T21:52:26.619Z,0
2016-07-30T21:55:40.730Z,0
2016-07-30T21:58:54.967Z,0
2016-07-30T22:02:15.210Z,0
2016-07-30T22:05:18.922Z,0
2016-07-30T22:08:33.168Z,0
2016-07-30T22:11:47.468Z,0
2016-07-30T22:15:07.680Z,0
2016-07-30T22:18:11.246Z,0
2016-07-30T22:21:25.007Z,0
2016-07-30T22:24:39.290Z,0
2016-07-30T22:27:53.578Z,0
2016-07-30T22:31:13.702Z,0
2016-07-30T22:34:17.264Z,0
2016-07-30T22:37:31.417Z,0
2016-07-30T22:40:45.304Z,0
2016-07-30T22:43:59.588Z,0
2016-07-30T22:47:13.688Z,0
2016-07-30T22:50:28.074Z,0
2016-07-30T22:53:42.393Z,0
2016-07-30T22:56:56.767Z,0
2016-07-30T23:00:16.255Z,0
2016-07-30T23:03:19.767Z,0
2016-07-30T23:06:33.985Z,0
2016-07-30T23:09:48.415Z,0
2016-07-30T23:13:08.604Z,0
2016-07-30T23:16:12.015Z,0
2016-07-30T23:19:26.290Z,0
2016-07-30T23:22:40.610Z,0
2016-07-30T23:25:55.056Z,0
2016-07-30T23:29:15.273Z,0
2016-07-30T23:32:18.677Z,0
2016-07-30T23:35:33.027Z,0
2016-07-30T23:38:47.221Z,0
2016-07-30T23:42:07.527Z,0
2016-07-30T23:45:11.100Z,0
2016-07-30T23:48:25.348Z,0
2016-07-30T23:51:39.628Z,0
2016-07-30T23:54:53.662Z,0
2016-07-30T23:58:14.064Z,0
